KIKK/IKK METAR and TAF weather

Enter ICAO airport designator
Station Type Date Time Source
KIKK METAR 2019/12/08 11:15 UTC NOAA

KIKK 081115Z AUTO 19009G14KT 10SM BKN016 01/M02 A3005 RMK AO2 T00061021


Station Type Date Time Source
KIKK Decoded METAR 2019/12/08 11:15 UTC NOAA

Kankakee, Greater Kankakee Airport, IL, United States (KIKK) 41-04-17N 087-50-47W
Dec 08, 2019 - 06:15 AM EST / 2019.12.08 1115 UTC
Wind: from the S (190 degrees) at 10 MPH (9 KT) gusting to 16 MPH (14 KT):0
Visibility: 10 mile(s):0
Sky conditions: mostly cloudy
Temperature: 33.1 F (0.6 C)
Windchill: 24 F (-4 C):1
Dew Point: 28.2 F (-2.1 C)
Relative Humidity: 82%
Pressure (altimeter): 30.05 in. Hg (1017 hPa)
ob: KIKK 081115Z AUTO 19009G14KT 10SM BKN016 01/M02 A3005 RMK AO2 T00061021
cycle: 11

Station Type Date Time Source
KIKK TAF UTC NOAA

Error!

Example: see airport list